createdAt,value
2023-03-06T00:02:03.877Z,-0.18
2023-03-06T00:04:33.757Z,-0.17
2023-03-06T00:07:04.647Z,-0.18
2023-03-06T00:09:35.712Z,-0.18
2023-03-06T00:12:07.656Z,-0.15
2023-03-06T00:14:39.103Z,-0.14
2023-03-06T00:17:10.168Z,-0.12
2023-03-06T00:19:41.674Z,-0.11
2023-03-06T00:22:14.024Z,-0.11
2023-03-06T00:24:45.870Z,-0.11
2023-03-06T00:27:16.942Z,-0.12
2023-03-06T00:29:49.272Z,-0.11
2023-03-06T00:32:20.313Z,-0.11
2023-03-06T00:34:51.124Z,-0.11
2023-03-06T00:37:22.870Z,-0.13
2023-03-06T00:39:53.895Z,-0.12
2023-03-06T00:42:25.200Z,-0.13
2023-03-06T00:44:56.316Z,-0.14
2023-03-06T00:47:27.292Z,-0.15
2023-03-06T00:49:58.144Z,-0.17
2023-03-06T00:52:29.184Z,-0.20
2023-03-06T00:55:00.354Z,-0.20
2023-03-06T00:57:31.358Z,-0.20
2023-03-06T01:00:02.215Z,-0.21
2023-03-06T01:02:35.474Z,-0.23
2023-03-06T01:05:07.977Z,-0.23
2023-03-06T01:07:39.107Z,-0.24
2023-03-06T01:10:12.662Z,-0.24
2023-03-06T01:12:43.866Z,-0.23
2023-03-06T01:15:16.034Z,-0.24
2023-03-06T01:17:47.323Z,-0.25
2023-03-06T01:20:19.942Z,-0.25
2023-03-06T01:22:50.917Z,-0.27
2023-03-06T01:25:22.199Z,-0.28
2023-03-06T01:27:53.170Z,-0.29
2023-03-06T01:30:24.400Z,-0.30
2023-03-06T01:32:54.141Z,-0.31
2023-03-06T01:35:25.262Z,-0.34
2023-03-06T01:37:56.104Z,-0.33
2023-03-06T01:40:27.193Z,-0.34
2023-03-06T01:42:58.175Z,-0.33
2023-03-06T01:46:03.942Z,-0.32
2023-03-06T01:48:35.208Z,-0.33
2023-03-06T01:51:06.580Z,-0.32
2023-03-06T01:53:38.019Z,-0.30
2023-03-06T01:56:10.196Z,-0.28
2023-03-06T01:58:41.448Z,-0.27
2023-03-06T02:01:11.130Z,-0.26
2023-03-06T02:03:43.923Z,-0.26
2023-03-06T02:06:19.703Z,-0.25
2023-03-06T02:08:52.943Z,-0.24
2023-03-06T02:11:26.213Z,-0.24
2023-03-06T02:13:57.786Z,-0.22
2023-03-06T02:16:28.289Z,-0.20
2023-03-06T02:19:03.155Z,-0.20
2023-03-06T02:21:37.415Z,-0.17
2023-03-06T02:24:23.800Z,-0.15
2023-03-06T02:26:56.377Z,-0.14
2023-03-06T02:29:30.525Z,-0.14
2023-03-06T02:32:01.480Z,-0.16
2023-03-06T02:34:56.040Z,-0.18
2023-03-06T02:37:29.310Z,-0.20
2023-03-06T02:40:12.343Z,-0.22
2023-03-06T02:42:49.047Z,-0.24
2023-03-06T02:45:27.022Z,-0.25
2023-03-06T02:47:58.019Z,-0.29
2023-03-06T02:50:29.102Z,-0.31
2023-03-06T02:53:00.222Z,-0.33
2023-03-06T02:55:31.297Z,-0.33
2023-03-06T02:58:02.542Z,-0.33
2023-03-06T03:00:35.056Z,-0.34
2023-03-06T03:03:07.168Z,-0.35
2023-03-06T03:05:38.273Z,-0.35
2023-03-06T03:08:09.819Z,-0.34
2023-03-06T03:10:40.915Z,-0.34
2023-03-06T03:13:13.109Z,-0.34
2023-03-06T03:15:44.753Z,-0.32
2023-03-06T03:18:14.154Z,-0.30
2023-03-06T03:20:45.982Z,-0.30
2023-03-06T03:23:19.921Z,-0.28
2023-03-06T03:25:51.130Z,-0.28
2023-03-06T03:28:22.175Z,-0.25
2023-03-06T03:30:53.290Z,-0.24
2023-03-06T03:33:24.397Z,-0.22
2023-03-06T03:36:00.451Z,-0.21
2023-03-06T03:38:32.739Z,-0.22
2023-03-06T03:41:05.260Z,-0.21
2023-03-06T03:43:36.439Z,-0.24
2023-03-06T03:46:08.021Z,-0.28
2023-03-06T03:48:39.067Z,-0.29
2023-03-06T03:51:12.250Z,-0.31
2023-03-06T03:53:43.815Z,-0.30
2023-03-06T03:56:15.603Z,-0.30
2023-03-06T03:58:46.965Z,-0.30
2023-03-06T04:01:17.943Z,-0.29
2023-03-06T04:03:48.934Z,-0.27
2023-03-06T04:06:20.395Z,-0.24
2023-03-06T04:08:49.883Z,-0.21
2023-03-06T04:11:20.856Z,-0.21
2023-03-06T04:13:52.112Z,-0.19
2023-03-06T04:16:23.193Z,-0.18
2023-03-06T04:18:54.251Z,-0.18
2023-03-06T04:21:25.233Z,-0.19
2023-03-06T04:23:56.262Z,-0.20
2023-03-06T04:26:27.592Z,-0.21
2023-03-06T04:28:58.739Z,-0.24
2023-03-06T04:31:29.681Z,-0.28
2023-03-06T04:34:00.772Z,-0.31
2023-03-06T04:36:34.146Z,-0.34
2023-03-06T04:39:05.474Z,-0.36
2023-03-06T04:41:36.591Z,-0.40
2023-03-06T04:44:08.394Z,-0.45
2023-03-06T04:46:39.773Z,-0.49
2023-03-06T04:49:10.875Z,-0.55
2023-03-06T04:51:42.034Z,-0.59
2023-03-06T04:54:13.011Z,-0.62
2023-03-06T04:56:44.058Z,-0.63
2023-03-06T04:59:15.061Z,-0.64
2023-03-06T05:01:46.037Z,-0.63
2023-03-06T05:04:17.199Z,-0.65
2023-03-06T05:06:48.221Z,-0.64
2023-03-06T05:09:19.234Z,-0.63
2023-03-06T05:11:50.213Z,-0.63
2023-03-06T05:14:21.847Z,-0.62
2023-03-06T05:16:52.780Z,-0.63
2023-03-06T05:19:23.799Z,-0.63
2023-03-06T05:21:54.915Z,-0.65
2023-03-06T05:24:26.272Z,-0.71
2023-03-06T05:26:57.345Z,-0.79
2023-03-06T05:29:28.948Z,-0.82
2023-03-06T05:32:00.158Z,-0.85
2023-03-06T05:34:31.273Z,-0.88
2023-03-06T05:37:02.345Z,-0.90
2023-03-06T05:39:33.437Z,-0.91
2023-03-06T05:42:04.545Z,-0.93
2023-03-06T05:44:36.631Z,-0.95
2023-03-06T05:47:08.377Z,-0.97
2023-03-06T05:49:37.794Z,-0.99
2023-03-06T05:52:10.239Z,-1.01
2023-03-06T05:54:41.202Z,-1.01
2023-03-06T05:57:12.320Z,-1.02
2023-03-06T05:59:43.350Z,-1.02
2023-03-06T06:02:13.049Z,-1.01
2023-03-06T06:04:44.200Z,-1.00
2023-03-06T06:07:17.705Z,-0.98
2023-03-06T06:09:49.152Z,-0.96
2023-03-06T06:12:20.162Z,-0.93
2023-03-06T06:14:51.314Z,-0.88
2023-03-06T06:17:22.438Z,-0.82
2023-03-06T06:19:53.634Z,-0.76
2023-03-06T06:22:24.733Z,-0.69
2023-03-06T06:24:55.785Z,-0.62
2023-03-06T06:27:27.069Z,-0.58
2023-03-06T06:29:58.199Z,-0.55
2023-03-06T06:32:29.617Z,-0.51
2023-03-06T06:35:01.521Z,-0.47
2023-03-06T06:37:32.765Z,-0.44
2023-03-06T06:40:08.054Z,-0.41
2023-03-06T06:42:40.309Z,-0.37
2023-03-06T06:45:13.672Z,-0.33
2023-03-06T06:47:44.878Z,-0.30
2023-03-06T06:50:19.632Z,-0.27
2023-03-06T06:52:50.710Z,-0.23
2023-03-06T06:55:21.855Z,-0.20
2023-03-06T06:57:52.791Z,-0.17
2023-03-06T07:00:25.713Z,-0.15
2023-03-06T07:02:56.825Z,-0.12
2023-03-06T07:05:28.702Z,-0.10
2023-03-06T07:07:59.837Z,-0.08
2023-03-06T07:10:33.970Z,-0.03
2023-03-06T07:13:04.957Z,0.00
2023-03-06T07:15:35.803Z,0.05
2023-03-06T07:18:06.916Z,0.08
2023-03-06T07:20:37.987Z,0.11
2023-03-06T07:23:12.487Z,0.15
2023-03-06T07:25:43.743Z,0.17
2023-03-06T07:28:15.147Z,0.24
2023-03-06T07:30:46.983Z,0.28
2023-03-06T07:33:18.723Z,0.31
2023-03-06T07:35:50.073Z,0.32
2023-03-06T07:38:21.218Z,0.33
2023-03-06T07:40:52.848Z,0.36
2023-03-06T07:43:23.857Z,0.40
2023-03-06T07:46:00.040Z,0.47
2023-03-06T07:48:31.843Z,0.57
2023-03-06T07:51:04.836Z,0.68
2023-03-06T07:53:36.781Z,0.78
2023-03-06T07:56:11.134Z,0.87
2023-03-06T07:58:44.922Z,0.93
2023-03-06T08:01:17.788Z,1.00
2023-03-06T08:03:50.401Z,1.10
2023-03-06T08:06:23.910Z,1.19
2023-03-06T08:08:56.565Z,1.30
2023-03-06T08:11:30.023Z,1.38
2023-03-06T08:14:01.381Z,1.51
2023-03-06T08:16:31.457Z,1.60
2023-03-06T08:19:02.877Z,1.73
2023-03-06T08:21:33.859Z,1.84
2023-03-06T08:24:06.263Z,1.92
2023-03-06T08:26:37.755Z,1.98
2023-03-06T08:29:09.144Z,2.02
2023-03-06T08:31:41.510Z,2.07
2023-03-06T08:34:14.971Z,2.11
2023-03-06T08:36:46.101Z,2.08
2023-03-06T08:39:17.156Z,2.03
2023-03-06T08:41:48.597Z,2.02
2023-03-06T08:44:19.574Z,2.01
2023-03-06T08:46:50.988Z,2.00
2023-03-06T08:49:22.452Z,2.02
2023-03-06T08:51:51.878Z,2.07
2023-03-06T08:54:22.974Z,2.00
2023-03-06T08:56:54.299Z,1.96
2023-03-06T08:59:25.920Z,1.98
2023-03-06T09:01:57.175Z,2.03
2023-03-06T09:04:26.782Z,2.03
2023-03-06T09:06:57.589Z,1.97
2023-03-06T09:09:28.782Z,1.95
2023-03-06T09:11:59.845Z,1.91
2023-03-06T09:14:32.051Z,1.87
2023-03-06T09:17:02.955Z,1.84
2023-03-06T09:19:32.637Z,1.84
2023-03-06T09:22:03.731Z,1.88
2023-03-06T09:24:34.697Z,1.89
2023-03-06T09:27:05.958Z,1.89
2023-03-06T09:29:36.979Z,1.86
2023-03-06T09:32:11.811Z,1.88
2023-03-06T09:34:43.196Z,1.92
2023-03-06T09:37:16.290Z,1.93
2023-03-06T09:39:47.550Z,1.91
2023-03-06T09:42:21.294Z,1.95
2023-03-06T09:44:55.826Z,2.06
2023-03-06T09:47:42.686Z,2.17
2023-03-06T09:50:39.893Z,2.28
2023-03-06T09:53:43.448Z,2.39
2023-03-06T09:56:18.918Z,2.43
2023-03-06T09:58:54.937Z,2.46
2023-03-06T10:01:28.924Z,2.46
2023-03-06T10:04:11.188Z,2.46
2023-03-06T10:06:49.571Z,2.46
2023-03-06T10:09:25.611Z,2.48
2023-03-06T10:12:00.467Z,2.52
2023-03-06T10:14:39.118Z,2.56
2023-03-06T10:17:17.181Z,2.60
2023-03-06T10:19:49.463Z,2.66
2023-03-06T10:22:29.312Z,2.69
2023-03-06T10:25:10.630Z,2.67
2023-03-06T10:27:48.895Z,2.62
2023-03-06T10:30:34.929Z,2.61
2023-03-06T10:33:16.802Z,2.65
2023-03-06T10:35:51.665Z,2.71
2023-03-06T10:38:25.126Z,2.77
2023-03-06T10:41:08.238Z,2.85
2023-03-06T10:43:42.696Z,2.90
2023-03-06T10:46:15.722Z,2.90
2023-03-06T10:49:00.849Z,2.92
2023-03-06T10:51:34.083Z,2.93
2023-03-06T10:54:20.757Z,2.95
2023-03-06T10:56:51.775Z,2.97
2023-03-06T10:59:25.444Z,2.96
2023-03-06T11:01:59.138Z,2.98
2023-03-06T11:04:32.692Z,2.98
2023-03-06T11:07:15.738Z,2.95
2023-03-06T11:10:00.284Z,2.93
2023-03-06T11:12:33.556Z,2.90
2023-03-06T11:15:22.499Z,2.85
2023-03-06T11:18:02.004Z,2.83
2023-03-06T11:20:50.439Z,2.80
2023-03-06T11:23:23.206Z,2.79
2023-03-06T11:25:58.648Z,2.82
2023-03-06T11:28:32.785Z,2.91
2023-03-06T11:31:07.175Z,3.07
2023-03-06T11:33:45.626Z,3.19
2023-03-06T11:36:24.032Z,3.30
2023-03-06T11:38:56.125Z,3.38
2023-03-06T11:41:36.619Z,3.39
2023-03-06T11:44:14.317Z,3.36
2023-03-06T11:46:50.796Z,3.31
2023-03-06T11:49:28.706Z,3.32
2023-03-06T11:52:07.655Z,3.35
2023-03-06T11:54:38.822Z,3.35
2023-03-06T11:57:16.699Z,3.39
2023-03-06T12:00:04.617Z,3.44
2023-03-06T12:02:49.511Z,3.50
2023-03-06T12:05:34.675Z,3.52
2023-03-06T12:08:22.430Z,3.47
2023-03-06T12:10:58.829Z,3.38
2023-03-06T12:13:46.350Z,3.32
2023-03-06T12:16:33.633Z,3.24
2023-03-06T12:19:16.333Z,3.15
2023-03-06T12:21:57.153Z,3.13
2023-03-06T12:24:56.330Z,3.20
2023-03-06T12:27:34.110Z,3.33
2023-03-06T12:30:26.482Z,3.32
2023-03-06T12:33:06.182Z,3.23
2023-03-06T12:35:58.015Z,3.18
2023-03-06T12:38:53.202Z,3.15
2023-03-06T12:41:36.487Z,3.07
2023-03-06T12:44:21.316Z,3.01
2023-03-06T12:46:58.971Z,2.94
2023-03-06T12:49:34.597Z,2.87
2023-03-06T12:52:08.233Z,2.78
2023-03-06T12:54:42.446Z,2.66
2023-03-06T12:57:17.001Z,2.52
2023-03-06T12:59:49.169Z,2.32
2023-03-06T13:03:00.112Z,2.14
2023-03-06T13:05:43.851Z,1.93
2023-03-06T13:08:35.947Z,1.83
2023-03-06T13:11:24.236Z,1.77
2023-03-06T13:13:56.030Z,1.73
2023-03-06T13:16:32.572Z,1.70
2023-03-06T13:19:12.696Z,1.71
2023-03-06T13:22:14.586Z,1.76
2023-03-06T13:24:45.735Z,1.88
2023-03-06T13:28:01.042Z,1.97
2023-03-06T13:30:46.039Z,2.07
2023-03-06T13:33:50.247Z,2.14
2023-03-06T13:36:27.450Z,2.18
2023-03-06T13:39:03.409Z,2.18
2023-03-06T13:41:59.676Z,2.18
2023-03-06T13:44:53.127Z,2.15
2023-03-06T13:48:09.740Z,2.19
2023-03-06T13:50:43.040Z,2.24
2023-03-06T13:53:51.980Z,2.32
2023-03-06T13:56:49.062Z,2.43
2023-03-06T13:59:35.049Z,2.54
2023-03-06T14:02:23.171Z,2.58
2023-03-06T14:04:59.981Z,2.64
2023-03-06T14:07:33.505Z,2.70
2023-03-06T14:10:27.988Z,2.76
2023-03-06T14:13:15.433Z,2.79
2023-03-06T14:15:49.286Z,2.82
2023-03-06T14:18:23.809Z,2.82
2023-03-06T14:20:58.868Z,2.81
2023-03-06T14:23:35.343Z,2.82
2023-03-06T14:26:15.572Z,2.86
2023-03-06T14:28:56.047Z,2.86
2023-03-06T14:31:29.813Z,2.86
2023-03-06T14:34:02.457Z,2.88
2023-03-06T14:36:35.762Z,2.90
2023-03-06T14:39:13.291Z,2.93
2023-03-06T14:41:44.637Z,2.98
2023-03-06T14:44:21.750Z,3.07
2023-03-06T14:46:55.600Z,3.14
2023-03-06T14:49:27.575Z,3.19
2023-03-06T14:52:01.808Z,3.22
2023-03-06T14:54:36.953Z,3.26
2023-03-06T14:57:12.740Z,3.26
2023-03-06T14:59:47.915Z,3.21
2023-03-06T15:02:23.609Z,3.16
2023-03-06T15:04:58.502Z,3.11
2023-03-06T15:07:33.694Z,3.08
2023-03-06T15:10:10.488Z,3.06
2023-03-06T15:12:41.491Z,3.02
2023-03-06T15:15:31.666Z,3.01
2023-03-06T15:18:03.345Z,2.96
2023-03-06T15:20:45.655Z,2.93
2023-03-06T15:23:25.851Z,2.89
2023-03-06T15:26:01.876Z,2.86
2023-03-06T15:28:38.901Z,2.83
2023-03-06T15:31:22.732Z,2.77
2023-03-06T15:34:12.455Z,2.69
2023-03-06T15:36:45.196Z,2.60
2023-03-06T15:39:32.666Z,2.54
2023-03-06T15:42:09.086Z,2.49
2023-03-06T15:44:40.482Z,2.46
2023-03-06T15:47:13.618Z,2.42
2023-03-06T15:49:44.914Z,2.38
2023-03-06T15:52:16.445Z,2.35
2023-03-06T15:54:47.556Z,2.34
2023-03-06T15:57:23.697Z,2.31
2023-03-06T15:59:56.294Z,2.27
2023-03-06T16:02:27.489Z,2.23
2023-03-06T16:05:02.418Z,2.19
2023-03-06T16:07:33.568Z,2.18
2023-03-06T16:10:04.819Z,2.16
2023-03-06T16:12:37.120Z,2.12
2023-03-06T16:15:17.120Z,2.10
2023-03-06T16:17:49.500Z,2.07
2023-03-06T16:20:24.265Z,2.05
2023-03-06T16:22:56.195Z,2.02
2023-03-06T16:25:29.170Z,1.99
2023-03-06T16:28:01.343Z,1.96
2023-03-06T16:30:35.510Z,1.94
2023-03-06T16:33:07.449Z,1.92
2023-03-06T16:35:38.512Z,1.89
2023-03-06T16:38:11.095Z,1.83
2023-03-06T16:40:42.618Z,1.79
2023-03-06T16:43:16.228Z,1.74
2023-03-06T16:45:47.511Z,1.70
2023-03-06T16:48:19.074Z,1.64
2023-03-06T16:50:51.179Z,1.59
2023-03-06T16:53:20.968Z,1.54
2023-03-06T16:55:52.122Z,1.46
2023-03-06T16:58:23.393Z,1.43
2023-03-06T17:00:54.650Z,1.38
2023-03-06T17:03:25.677Z,1.36
2023-03-06T17:05:56.853Z,1.32
2023-03-06T17:08:27.939Z,1.29
2023-03-06T17:10:57.749Z,1.28
2023-03-06T17:13:31.819Z,1.23
2023-03-06T17:16:03.310Z,1.19
2023-03-06T17:18:35.132Z,1.15
2023-03-06T17:21:08.505Z,1.12
2023-03-06T17:23:40.194Z,1.08
2023-03-06T17:26:14.286Z,1.05
2023-03-06T17:28:45.761Z,1.04
2023-03-06T17:31:19.434Z,1.04
2023-03-06T17:33:51.513Z,1.05
2023-03-06T17:36:22.766Z,1.03
2023-03-06T17:38:55.317Z,1.02
2023-03-06T17:41:26.600Z,1.03
2023-03-06T17:43:58.948Z,1.04
2023-03-06T17:46:31.885Z,1.04
2023-03-06T17:49:02.945Z,1.03
2023-03-06T17:51:33.749Z,1.04
2023-03-06T17:54:04.943Z,1.05
2023-03-06T17:56:37.989Z,1.07
2023-03-06T17:59:09.187Z,1.07
2023-03-06T18:01:40.229Z,1.06
2023-03-06T18:04:11.647Z,1.04
2023-03-06T18:06:41.070Z,1.03
2023-03-06T18:09:12.402Z,0.99
2023-03-06T18:11:43.657Z,0.98
2023-03-06T18:14:14.936Z,0.95
2023-03-06T18:16:48.046Z,0.93
2023-03-06T18:19:19.430Z,0.90
2023-03-06T18:21:49.014Z,0.88
2023-03-06T18:24:20.001Z,0.85
2023-03-06T18:26:51.005Z,0.85
2023-03-06T18:29:22.031Z,0.84
2023-03-06T18:31:53.452Z,0.84
2023-03-06T18:34:24.594Z,0.84
2023-03-06T18:36:55.594Z,0.85
2023-03-06T18:39:26.431Z,0.84
2023-03-06T18:41:57.706Z,0.85
2023-03-06T18:44:29.657Z,0.85
2023-03-06T18:47:01.213Z,0.85
2023-03-06T18:49:33.879Z,0.86
2023-03-06T18:52:05.720Z,0.86
2023-03-06T18:54:36.971Z,0.87
2023-03-06T18:57:06.612Z,0.90
2023-03-06T18:59:37.815Z,0.89
2023-03-06T19:02:07.942Z,0.91
2023-03-06T19:04:39.414Z,0.92
2023-03-06T19:07:13.756Z,0.94
2023-03-06T19:09:48.727Z,0.94
2023-03-06T19:12:19.858Z,0.92
2023-03-06T19:14:51.326Z,0.93
2023-03-06T19:17:24.895Z,0.91
2023-03-06T19:19:56.309Z,0.92
2023-03-06T19:22:25.830Z,0.91
2023-03-06T19:24:58.089Z,0.88
2023-03-06T19:27:30.190Z,0.88
2023-03-06T19:30:01.242Z,0.89
2023-03-06T19:32:33.552Z,0.89
2023-03-06T19:35:05.931Z,0.90
2023-03-06T19:37:37.276Z,0.88
2023-03-06T19:40:07.566Z,0.87
2023-03-06T19:42:38.918Z,0.85
2023-03-06T19:45:11.629Z,0.85
2023-03-06T19:47:42.868Z,0.86
2023-03-06T19:50:14.885Z,0.85
2023-03-06T19:52:45.715Z,0.85
2023-03-06T19:55:17.812Z,0.83
2023-03-06T19:57:49.181Z,0.80
2023-03-06T20:00:19.283Z,0.78
2023-03-06T20:02:50.525Z,0.73
2023-03-06T20:05:22.089Z,0.72
2023-03-06T20:07:53.647Z,0.72
2023-03-06T20:10:23.471Z,0.71
2023-03-06T20:12:54.505Z,0.68
2023-03-06T20:15:28.034Z,0.65
2023-03-06T20:17:59.398Z,0.63
2023-03-06T20:20:30.892Z,0.63
2023-03-06T20:23:04.704Z,0.63
2023-03-06T20:25:37.640Z,0.61
2023-03-06T20:28:09.106Z,0.61
2023-03-06T20:30:40.825Z,0.63
2023-03-06T20:33:11.912Z,0.64
2023-03-06T20:35:44.221Z,0.64
2023-03-06T20:38:15.495Z,0.67
2023-03-06T20:40:46.880Z,0.68
2023-03-06T20:43:17.711Z,0.68
2023-03-06T20:46:00.672Z,0.69
2023-03-06T20:48:32.062Z,0.70
2023-03-06T20:51:05.902Z,0.72
2023-03-06T20:53:37.247Z,0.73
2023-03-06T20:56:11.907Z,0.75
2023-03-06T20:58:42.984Z,0.74
2023-03-06T21:01:20.605Z,0.75
2023-03-06T21:03:52.392Z,0.75
2023-03-06T21:06:24.322Z,0.76
2023-03-06T21:08:55.557Z,0.75
2023-03-06T21:11:27.506Z,0.75
2023-03-06T21:14:00.932Z,0.74
2023-03-06T21:16:32.369Z,0.74
2023-03-06T21:19:01.949Z,0.75
2023-03-06T21:21:36.108Z,0.74
2023-03-06T21:24:07.574Z,0.76
2023-03-06T21:26:38.652Z,0.76
2023-03-06T21:29:09.964Z,0.78
2023-03-06T21:31:41.312Z,0.77
2023-03-06T21:34:12.598Z,0.76
2023-03-06T21:36:43.617Z,0.76
2023-03-06T21:39:14.798Z,0.78
2023-03-06T21:41:45.886Z,0.77
2023-03-06T21:44:17.120Z,0.78
2023-03-06T21:46:48.313Z,0.79
2023-03-06T21:49:19.538Z,0.80
2023-03-06T21:51:50.609Z,0.81
2023-03-06T21:54:22.019Z,0.82
2023-03-06T21:56:51.420Z,0.81
2023-03-06T21:59:22.683Z,0.80
2023-03-06T22:01:53.985Z,0.82
2023-03-06T22:04:25.126Z,0.82
2023-03-06T22:06:56.294Z,0.82
2023-03-06T22:09:27.609Z,0.83
2023-03-06T22:11:58.660Z,0.83
2023-03-06T22:14:29.632Z,0.81
2023-03-06T22:17:01.468Z,0.79
2023-03-06T22:19:32.914Z,0.79
2023-03-06T22:22:03.772Z,0.78
2023-03-06T22:24:35.184Z,0.77
2023-03-06T22:27:07.748Z,0.77
2023-03-06T22:29:39.154Z,0.76
2023-03-06T22:32:10.924Z,0.76
2023-03-06T22:34:42.024Z,0.76
2023-03-06T22:37:13.268Z,0.76
2023-03-06T22:39:44.832Z,0.76
2023-03-06T22:42:16.192Z,0.77
2023-03-06T22:44:47.532Z,0.76
2023-03-06T22:47:16.911Z,0.76
2023-03-06T22:49:47.995Z,0.76
2023-03-06T22:52:19.684Z,0.78
2023-03-06T22:54:50.737Z,0.81
2023-03-06T22:57:21.846Z,0.85
2023-03-06T22:59:53.068Z,0.88
2023-03-06T23:02:24.103Z,0.92
2023-03-06T23:04:55.334Z,0.95
2023-03-06T23:07:26.514Z,0.96
2023-03-06T23:09:57.688Z,0.96
2023-03-06T23:12:28.768Z,0.94
2023-03-06T23:14:59.991Z,0.92
2023-03-06T23:17:30.991Z,0.89
2023-03-06T23:20:05.035Z,0.86
2023-03-06T23:22:36.083Z,0.85
2023-03-06T23:25:08.285Z,0.82
2023-03-06T23:27:39.734Z,0.81
2023-03-06T23:30:13.120Z,0.81
2023-03-06T23:32:45.926Z,0.81
2023-03-06T23:35:17.345Z,0.81
2023-03-06T23:37:48.406Z,0.79
2023-03-06T23:40:19.816Z,0.76
2023-03-06T23:42:49.377Z,0.75
2023-03-06T23:45:20.726Z,0.72
2023-03-06T23:47:51.930Z,0.71
2023-03-06T23:50:24.361Z,0.69
2023-03-06T23:52:56.359Z,0.66
2023-03-06T23:55:27.264Z,0.64
2023-03-06T23:57:58.293Z,0.62
